createdAt,value
2022-10-21T00:00:13.087Z,13.70
2022-10-21T00:02:46.372Z,13.44
2022-10-21T00:05:14.950Z,13.66
2022-10-21T00:07:42.684Z,13.69
2022-10-21T00:10:11.637Z,13.71
2022-10-21T00:12:40.309Z,13.70
2022-10-21T00:15:10.380Z,13.72
2022-10-21T00:17:39.711Z,13.72
2022-10-21T00:20:12.296Z,13.73
2022-10-21T00:22:40.431Z,13.45
2022-10-21T00:25:09.877Z,13.68
2022-10-21T00:27:38.578Z,13.71
2022-10-21T00:30:08.666Z,13.73
2022-10-21T00:32:36.887Z,13.73
2022-10-21T00:35:05.260Z,13.74
2022-10-21T00:37:34.577Z,13.76
2022-10-21T00:40:02.504Z,13.75
2022-10-21T00:42:33.607Z,13.77
2022-10-21T00:45:12.792Z,13.78
2022-10-21T00:47:45.358Z,13.78
2022-10-21T00:50:23.877Z,13.80
2022-10-21T00:52:54.756Z,13.79
2022-10-21T00:55:23.001Z,13.79
2022-10-21T00:57:52.061Z,13.80
2022-10-21T01:00:20.582Z,13.79
2022-10-21T01:02:48.325Z,13.79
2022-10-21T01:05:18.021Z,13.82
2022-10-21T01:07:48.428Z,13.82
2022-10-21T01:10:18.417Z,13.83
2022-10-21T01:12:58.571Z,13.84
2022-10-21T01:15:31.133Z,13.83
2022-10-21T01:18:06.884Z,13.82
2022-10-21T01:20:54.266Z,13.82
2022-10-21T01:23:57.815Z,13.80
2022-10-21T01:26:58.931Z,13.79
2022-10-21T01:30:06.911Z,13.72
2022-10-21T01:32:47.966Z,13.77
2022-10-21T01:35:22.326Z,13.77
2022-10-21T01:38:04.515Z,13.77
2022-10-21T01:40:38.104Z,13.74
2022-10-21T01:43:16.048Z,13.75
2022-10-21T01:45:47.832Z,13.74
2022-10-21T01:48:20.331Z,13.73
2022-10-21T01:50:52.904Z,13.72
2022-10-21T01:53:22.816Z,13.71
2022-10-21T01:55:52.666Z,13.70
2022-10-21T01:58:25.042Z,13.71
2022-10-21T02:00:57.330Z,13.70
2022-10-21T02:03:30.786Z,13.68
2022-10-21T02:05:59.096Z,13.68
2022-10-21T02:08:27.367Z,13.68
2022-10-21T02:10:58.439Z,13.68
2022-10-21T02:13:31.326Z,13.69
2022-10-21T02:16:01.895Z,13.40
2022-10-21T02:18:31.128Z,13.62
2022-10-21T02:21:02.902Z,13.66
2022-10-21T02:23:36.776Z,13.63
2022-10-21T02:26:04.730Z,13.63
2022-10-21T02:28:33.507Z,13.62
2022-10-21T02:31:13.607Z,13.65
2022-10-21T02:33:53.207Z,13.65
2022-10-21T02:36:28.976Z,13.62
2022-10-21T02:39:02.039Z,13.63
2022-10-21T02:41:31.483Z,13.62
2022-10-21T02:44:01.608Z,13.61
2022-10-21T02:46:37.699Z,13.62
2022-10-21T02:49:07.511Z,13.61
2022-10-21T02:51:35.455Z,13.59
2022-10-21T02:54:03.460Z,13.59
2022-10-21T02:56:31.280Z,13.59
2022-10-21T02:58:59.082Z,13.59
2022-10-21T03:01:26.911Z,13.58
2022-10-21T03:03:54.692Z,13.58
2022-10-21T03:06:23.830Z,13.60
2022-10-21T03:08:51.639Z,13.58
2022-10-21T03:11:19.390Z,13.57
2022-10-21T03:13:47.237Z,13.56
2022-10-21T03:16:15.056Z,13.57
2022-10-21T03:18:42.854Z,13.57
2022-10-21T03:21:10.644Z,13.57
2022-10-21T03:23:39.763Z,13.57
2022-10-21T03:26:07.515Z,13.56
2022-10-21T03:28:35.312Z,13.56
2022-10-21T03:31:03.168Z,13.55
2022-10-21T03:33:30.932Z,13.55
2022-10-21T03:35:58.661Z,13.55
2022-10-21T03:38:26.587Z,13.54
2022-10-21T03:40:55.785Z,13.55
2022-10-21T03:43:23.516Z,13.55
2022-10-21T03:45:51.275Z,13.53
2022-10-21T03:48:19.157Z,13.53
2022-10-21T03:50:46.900Z,13.53
2022-10-21T03:53:37.956Z,13.53
2022-10-21T03:56:03.846Z,13.53
2022-10-21T03:58:31.659Z,13.51
2022-10-21T04:00:59.468Z,13.51
2022-10-21T04:03:27.261Z,13.51
2022-10-21T04:05:55.277Z,13.51
2022-10-21T04:08:23.289Z,13.50
2022-10-21T04:10:51.152Z,13.51
2022-10-21T04:13:20.474Z,13.53
2022-10-21T04:15:48.505Z,13.51
2022-10-21T04:18:16.518Z,13.52
2022-10-21T04:20:44.303Z,13.51
2022-10-21T04:23:12.053Z,13.52
2022-10-21T04:25:39.908Z,13.53
2022-10-21T04:28:07.682Z,13.53
2022-10-21T04:30:37.064Z,13.55
2022-10-21T04:33:05.215Z,13.54
2022-10-21T04:35:33.018Z,13.54
2022-10-21T04:38:01.080Z,13.54
2022-10-21T04:40:28.987Z,13.54
2022-10-21T04:42:56.882Z,13.54
2022-10-21T04:45:24.794Z,13.54
2022-10-21T04:47:53.915Z,13.57
2022-10-21T04:50:24.987Z,13.58
2022-10-21T04:52:52.832Z,13.55
2022-10-21T04:55:20.594Z,13.57
2022-10-21T04:57:48.504Z,13.57
2022-10-21T05:00:16.592Z,13.59
2022-10-21T05:02:44.437Z,13.58
2022-10-21T05:05:13.543Z,13.61
2022-10-21T05:07:41.354Z,13.60
2022-10-21T05:10:10.106Z,13.60
2022-10-21T05:12:37.890Z,13.59
2022-10-21T05:15:06.365Z,13.61
2022-10-21T05:17:42.105Z,13.60
2022-10-21T05:20:12.072Z,13.61
2022-10-21T05:22:42.160Z,13.63
2022-10-21T05:25:10.811Z,13.62
2022-10-21T05:27:41.705Z,13.63
2022-10-21T05:30:11.261Z,13.65
2022-10-21T05:32:40.063Z,13.65
2022-10-21T05:35:09.127Z,13.65
2022-10-21T05:37:36.991Z,13.66
2022-10-21T05:40:07.960Z,13.68
2022-10-21T05:42:36.140Z,13.67
2022-10-21T05:45:04.844Z,13.68
2022-10-21T05:47:32.869Z,13.67
2022-10-21T05:50:00.798Z,13.68
2022-10-21T05:52:28.688Z,13.68
2022-10-21T05:54:56.559Z,13.69
2022-10-21T05:57:25.875Z,13.70
2022-10-21T05:59:53.907Z,13.69
2022-10-21T06:02:21.703Z,13.70
2022-10-21T06:04:49.462Z,13.69
2022-10-21T06:07:17.320Z,13.69
2022-10-21T06:09:45.394Z,13.69
2022-10-21T06:12:13.387Z,13.69
2022-10-21T06:14:43.570Z,13.72
2022-10-21T06:17:11.563Z,13.70
2022-10-21T06:19:39.425Z,13.71
2022-10-21T06:22:13.877Z,13.69
2022-10-21T06:24:41.824Z,13.70
2022-10-21T06:27:10.061Z,13.71
2022-10-21T06:29:37.989Z,13.71
2022-10-21T06:32:07.230Z,13.72
2022-10-21T06:34:35.236Z,13.72
2022-10-21T06:37:03.082Z,13.72
2022-10-21T06:39:31.034Z,13.72
2022-10-21T06:42:00.280Z,13.75
2022-10-21T06:44:56.620Z,13.73
2022-10-21T06:47:28.650Z,13.75
2022-10-21T06:49:56.779Z,13.74
2022-10-21T06:54:52.539Z,13.75
2022-10-21T06:57:20.507Z,13.76
2022-10-21T06:59:48.552Z,13.78
2022-10-21T07:02:16.507Z,13.77
2022-10-21T07:04:48.780Z,13.80
2022-10-21T07:07:16.940Z,13.78
2022-10-21T07:09:44.843Z,13.80
2022-10-21T07:12:14.014Z,13.83
2022-10-21T07:14:41.926Z,13.83
2022-10-21T07:17:10.332Z,13.85
2022-10-21T07:19:38.173Z,13.86
2022-10-21T07:22:07.435Z,13.88
2022-10-21T07:24:35.699Z,13.87
2022-10-21T07:27:03.784Z,13.89
2022-10-21T07:29:31.965Z,13.90
2022-10-21T07:31:59.863Z,13.91
2022-10-21T07:34:28.333Z,13.93
2022-10-21T07:36:56.280Z,13.93
2022-10-21T07:39:27.694Z,13.95
2022-10-21T07:41:58.353Z,13.97
2022-10-21T07:44:27.469Z,13.97
2022-10-21T07:46:56.078Z,13.99
2022-10-21T07:49:24.973Z,13.99
2022-10-21T07:51:53.801Z,14.00
2022-10-21T07:54:25.042Z,14.02
2022-10-21T07:56:54.443Z,14.02
2022-10-21T07:59:24.023Z,14.03
2022-10-21T08:01:53.286Z,14.01
2022-10-21T08:04:24.851Z,14.02
2022-10-21T08:06:52.733Z,13.98
2022-10-21T08:09:23.787Z,13.96
2022-10-21T08:12:01.232Z,13.94
2022-10-21T08:14:33.933Z,13.90
2022-10-21T08:17:24.092Z,13.88
2022-10-21T08:20:01.043Z,13.85
2022-10-21T08:22:55.248Z,13.81
2022-10-21T08:25:24.125Z,13.80
2022-10-21T08:27:53.560Z,13.82
2022-10-21T08:30:21.576Z,13.79
2022-10-21T08:32:49.653Z,13.79
2022-10-21T08:35:17.601Z,13.79
2022-10-21T08:37:48.927Z,13.78
2022-10-21T08:40:18.083Z,13.78
2022-10-21T08:42:46.386Z,13.78
2022-10-21T08:45:24.995Z,13.81
2022-10-21T08:47:56.331Z,13.80
2022-10-21T08:50:37.811Z,13.82
2022-10-21T08:53:14.531Z,13.82
2022-10-21T08:55:44.722Z,13.82
2022-10-21T08:58:16.497Z,13.83
2022-10-21T09:00:49.726Z,13.83
2022-10-21T09:03:25.031Z,13.85
2022-10-21T09:06:17.008Z,13.84
2022-10-21T09:08:57.407Z,13.86
2022-10-21T09:11:34.767Z,13.87
2022-10-21T09:14:40.332Z,13.85
2022-10-21T09:17:22.408Z,13.88
2022-10-21T09:19:59.389Z,13.86
2022-10-21T09:23:38.223Z,13.90
2022-10-21T09:26:25.338Z,13.89
2022-10-21T09:29:18.938Z,13.89
2022-10-21T09:31:53.100Z,13.90
2022-10-21T09:34:38.742Z,13.94
2022-10-21T09:37:13.135Z,13.93
2022-10-21T09:39:56.066Z,13.95
2022-10-21T09:42:46.398Z,13.95
2022-10-21T09:45:36.176Z,13.98
2022-10-21T09:48:07.551Z,13.99
2022-10-21T09:50:38.896Z,14.02
2022-10-21T09:53:35.646Z,14.04
2022-10-21T09:56:06.326Z,14.03
2022-10-21T09:58:51.042Z,14.06
2022-10-21T10:01:21.783Z,14.06
2022-10-21T10:03:51.711Z,14.08
2022-10-21T10:06:43.471Z,14.05
2022-10-21T10:09:25.653Z,14.08
2022-10-21T10:12:01.678Z,14.05
2022-10-21T10:14:34.954Z,14.07
2022-10-21T10:17:22.637Z,14.06
2022-10-21T10:20:16.256Z,14.04
2022-10-21T10:22:48.073Z,14.08
2022-10-21T10:25:24.314Z,14.09
2022-10-21T10:27:54.921Z,14.09
2022-10-21T10:30:48.087Z,14.10
2022-10-21T10:33:17.507Z,13.84
2022-10-21T10:35:51.873Z,14.10
2022-10-21T10:38:26.088Z,14.14
2022-10-21T10:40:58.643Z,14.13
2022-10-21T10:43:31.134Z,14.17
2022-10-21T10:46:01.360Z,14.15
2022-10-21T10:48:39.497Z,14.18
2022-10-21T10:51:09.298Z,14.19
2022-10-21T10:54:39.581Z,14.16
2022-10-21T11:00:51.762Z,14.16
2022-10-21T11:03:35.885Z,14.21
2022-10-21T11:07:13.157Z,14.22
2022-10-21T11:11:15.366Z,14.20
2022-10-21T11:17:00.192Z,14.25
2022-10-21T11:19:35.268Z,14.25
2022-10-21T11:22:14.109Z,14.29
2022-10-21T11:24:55.499Z,14.31
2022-10-21T11:27:48.733Z,14.31
2022-10-21T11:30:19.896Z,14.03
2022-10-21T11:33:08.692Z,14.29
2022-10-21T11:35:53.071Z,14.33
2022-10-21T11:38:38.140Z,14.37
2022-10-21T11:46:02.945Z,14.33
2022-10-21T11:57:26.937Z,14.41
2022-10-21T12:00:06.494Z,14.47
2022-10-21T12:02:43.885Z,14.51
2022-10-21T12:05:27.893Z,14.54
2022-10-21T12:08:13.917Z,14.55
2022-10-21T12:10:48.279Z,14.61
2022-10-21T12:13:21.898Z,14.65
2022-10-21T12:15:54.412Z,14.73
2022-10-21T12:18:24.915Z,14.75
2022-10-21T12:20:54.916Z,14.86
2022-10-21T12:23:25.889Z,14.92
2022-10-21T12:26:05.669Z,15.02
2022-10-21T12:28:39.954Z,15.10
2022-10-21T12:31:24.646Z,15.21
2022-10-21T12:34:57.254Z,15.28
2022-10-21T12:48:53.592Z,15.68
2022-10-21T12:51:41.563Z,15.81
2022-10-21T12:54:24.225Z,15.88
2022-10-21T12:57:04.461Z,15.97
2022-10-21T12:59:41.196Z,16.00
2022-10-21T13:02:28.427Z,16.03
2022-10-21T13:06:07.118Z,16.08
2022-10-21T13:08:56.052Z,15.85
2022-10-21T13:11:48.650Z,16.16
2022-10-21T13:18:56.462Z,16.20
2022-10-21T13:21:27.354Z,16.21
2022-10-21T13:23:59.353Z,16.30
2022-10-21T13:26:30.232Z,16.31
2022-10-21T13:29:17.508Z,16.37
2022-10-21T13:31:45.531Z,16.37
2022-10-21T13:34:29.068Z,16.39
2022-10-21T13:36:57.835Z,16.39
2022-10-21T13:39:31.115Z,16.46
2022-10-21T13:42:04.615Z,16.47
2022-10-21T13:44:36.463Z,16.50
2022-10-21T13:47:27.004Z,16.48
2022-10-21T13:49:56.268Z,16.52
2022-10-21T13:52:29.389Z,16.56
2022-10-21T13:55:00.433Z,16.59
2022-10-21T13:57:32.168Z,16.62
2022-10-21T14:00:07.342Z,16.63
2022-10-21T14:02:35.682Z,16.62
2022-10-21T14:05:03.642Z,16.66
2022-10-21T14:07:31.806Z,16.69
2022-10-21T14:10:01.426Z,16.71
2022-10-21T14:12:34.958Z,16.75
2022-10-21T14:15:07.993Z,16.74
2022-10-21T14:17:48.937Z,16.76
2022-10-21T14:20:26.952Z,16.77
2022-10-21T14:22:56.838Z,16.78
2022-10-21T14:25:26.441Z,16.79
2022-10-21T14:27:54.600Z,16.76
2022-10-21T14:30:25.511Z,16.80
2022-10-21T14:32:54.610Z,16.81
2022-10-21T14:35:26.513Z,16.83
2022-10-21T14:37:58.674Z,16.81
2022-10-21T14:40:32.148Z,16.83
2022-10-21T14:43:05.933Z,16.84
2022-10-21T14:45:36.651Z,16.85
2022-10-21T14:48:28.606Z,16.87
2022-10-21T14:51:00.947Z,16.85
2022-10-21T14:56:44.412Z,16.84
2022-10-21T15:00:03.424Z,16.83
2022-10-21T15:04:05.196Z,16.77
2022-10-21T15:07:33.620Z,16.68
2022-10-21T15:10:31.643Z,16.71
2022-10-21T15:13:01.824Z,16.71
2022-10-21T15:15:52.562Z,16.72
2022-10-21T15:18:24.136Z,16.71
2022-10-21T15:20:57.067Z,16.72
2022-10-21T15:23:38.220Z,16.73
2022-10-21T15:26:21.739Z,16.73
2022-10-21T15:28:50.388Z,16.70
2022-10-21T15:31:21.486Z,16.71
2022-10-21T15:33:50.551Z,16.71
2022-10-21T15:36:46.546Z,16.71
2022-10-21T15:39:15.115Z,16.70
2022-10-21T15:41:45.484Z,16.70
2022-10-21T15:47:29.338Z,16.64
2022-10-21T15:49:57.748Z,16.67
2022-10-21T15:52:29.201Z,16.67
2022-10-21T15:54:57.297Z,16.69
2022-10-21T15:57:26.495Z,16.69
2022-10-21T15:59:54.507Z,16.68
2022-10-21T16:02:22.507Z,16.69
2022-10-21T16:04:53.056Z,16.68
2022-10-21T16:07:23.039Z,16.67
2022-10-21T16:09:51.066Z,16.64
2022-10-21T16:12:21.857Z,16.64
2022-10-21T16:14:51.214Z,16.65
2022-10-21T16:17:19.739Z,16.61
2022-10-21T16:19:47.626Z,16.60
2022-10-21T16:22:20.144Z,16.58
2022-10-21T16:24:50.396Z,16.56
2022-10-21T16:27:31.173Z,16.56
2022-10-21T16:30:19.846Z,16.56
2022-10-21T16:32:47.704Z,16.26
2022-10-21T16:35:17.106Z,16.47
2022-10-21T16:37:46.043Z,16.50
2022-10-21T16:40:19.545Z,16.50
2022-10-21T16:42:47.967Z,16.45
2022-10-21T16:45:18.190Z,16.47
2022-10-21T16:47:51.672Z,16.43
2022-10-21T16:50:23.121Z,16.43
2022-10-21T16:52:51.108Z,16.40
2022-10-21T16:55:19.663Z,16.38
2022-10-21T16:57:47.755Z,16.37
2022-10-21T17:00:18.144Z,16.37
2022-10-21T17:03:09.898Z,16.34
2022-10-21T17:05:38.692Z,16.26
2022-10-21T17:08:07.073Z,16.28
2022-10-21T17:10:38.082Z,16.26
2022-10-21T17:13:11.681Z,16.22
2022-10-21T17:15:41.875Z,16.23
2022-10-21T17:18:13.182Z,16.18
2022-10-21T17:20:44.219Z,16.16
2022-10-21T17:23:27.128Z,16.14
2022-10-21T17:25:55.279Z,16.10
2022-10-21T17:28:25.305Z,16.08
2022-10-21T17:30:56.898Z,16.10
2022-10-21T17:33:27.363Z,16.06
2022-10-21T17:36:10.417Z,16.05
2022-10-21T17:38:39.021Z,16.01
2022-10-21T17:41:07.101Z,16.01
2022-10-21T17:43:35.278Z,16.00
2022-10-21T17:46:04.481Z,16.01
2022-10-21T17:48:44.108Z,15.98
2022-10-21T17:51:16.111Z,15.93
2022-10-21T17:53:46.657Z,15.95
2022-10-21T17:56:21.705Z,15.92
2022-10-21T17:58:54.647Z,15.92
2022-10-21T18:01:25.088Z,15.63
2022-10-21T19:27:45.648Z,15.14
2022-10-21T19:30:14.099Z,15.16
2022-10-21T19:32:42.226Z,15.17
2022-10-21T19:35:10.796Z,15.18
2022-10-21T19:37:38.671Z,15.17
2022-10-21T19:40:07.683Z,15.17
2022-10-21T19:42:35.817Z,15.16
2022-10-21T19:45:05.992Z,15.17
2022-10-21T19:47:34.355Z,15.16
2022-10-21T19:50:02.312Z,15.13
2022-10-21T19:52:30.691Z,15.12
2022-10-21T19:54:58.654Z,15.12
2022-10-21T19:57:27.104Z,15.10
2022-10-21T19:59:56.423Z,15.09
2022-10-21T20:02:28.141Z,15.10
2022-10-21T20:04:56.201Z,15.07
2022-10-21T20:07:24.148Z,15.07
2022-10-21T20:09:52.481Z,15.06
2022-10-21T20:12:20.475Z,15.07
2022-10-21T20:14:48.789Z,15.07
2022-10-21T20:17:18.345Z,15.05
2022-10-21T20:19:49.783Z,15.07
2022-10-21T20:22:18.667Z,15.04
2022-10-21T20:24:46.757Z,15.04
2022-10-21T20:27:14.809Z,15.03
2022-10-21T20:29:42.778Z,15.02
2022-10-21T20:32:11.046Z,15.00
2022-10-21T20:34:39.815Z,14.99
2022-10-21T20:37:09.471Z,14.99
2022-10-21T20:39:38.324Z,14.98
2022-10-21T20:42:06.555Z,14.97
2022-10-21T20:44:34.578Z,14.96
2022-10-21T20:47:02.708Z,14.95
2022-10-21T20:49:30.688Z,14.94
2022-10-21T20:51:58.856Z,14.93
2022-10-21T20:54:29.143Z,14.94
2022-10-21T20:56:57.103Z,14.90
2022-10-21T20:59:25.060Z,14.90
2022-10-21T21:01:53.302Z,14.90
2022-10-21T21:04:23.787Z,14.88
2022-10-21T21:06:52.437Z,14.88
2022-10-21T21:09:43.646Z,14.88
2022-10-21T21:12:11.267Z,14.87
2022-10-21T21:14:39.282Z,14.85
2022-10-21T21:17:08.087Z,14.85
2022-10-21T21:19:36.243Z,14.83
2022-10-21T21:22:05.165Z,14.82
2022-10-21T21:24:33.234Z,14.82
2022-10-21T21:27:01.186Z,14.79
2022-10-21T21:29:30.537Z,14.79
2022-10-21T21:31:58.887Z,14.76
2022-10-21T21:34:26.858Z,14.74
2022-10-21T21:36:54.779Z,14.73
2022-10-21T21:39:22.778Z,14.73
2022-10-21T21:41:50.875Z,14.70
2022-10-21T21:44:18.800Z,14.71
2022-10-21T21:46:48.253Z,14.72
2022-10-21T21:49:16.435Z,14.70
2022-10-21T21:51:44.559Z,14.69
2022-10-21T21:54:13.450Z,14.69
2022-10-21T21:56:41.523Z,14.67
2022-10-21T21:59:09.458Z,14.66
2022-10-21T22:01:37.805Z,14.65
2022-10-21T22:04:07.259Z,14.66
2022-10-21T22:06:37.586Z,14.64
2022-10-21T22:09:10.090Z,14.63
2022-10-21T22:11:39.240Z,14.58
2022-10-21T22:14:07.283Z,14.61
2022-10-21T22:16:35.462Z,14.58
2022-10-21T22:19:03.537Z,14.57
2022-10-21T22:21:33.312Z,14.58
2022-10-21T22:24:01.287Z,14.56
2022-10-21T22:26:29.980Z,14.55
2022-10-21T22:28:58.080Z,14.54
2022-10-21T22:31:29.426Z,14.55
2022-10-21T22:33:59.655Z,14.53
2022-10-21T22:36:27.629Z,14.53
2022-10-21T22:38:57.133Z,14.54
2022-10-21T22:41:25.347Z,14.53
2022-10-21T22:43:53.564Z,14.52
2022-10-21T22:46:29.767Z,14.51
2022-10-21T22:49:02.371Z,14.49
2022-10-21T22:51:30.210Z,14.50
2022-10-21T22:54:02.755Z,14.51
2022-10-21T22:56:30.899Z,14.45
2022-10-21T22:58:59.178Z,14.45
2022-10-21T23:01:30.434Z,14.44
2022-10-21T23:04:02.660Z,14.45
2022-10-21T23:06:30.838Z,14.40
2022-10-21T23:09:00.179Z,14.42
2022-10-21T23:11:28.552Z,14.41
2022-10-21T23:14:03.027Z,14.39
2022-10-21T23:16:35.739Z,14.39
2022-10-21T23:19:03.804Z,14.38
2022-10-21T23:21:31.860Z,14.38
2022-10-21T23:24:01.095Z,14.39
2022-10-21T23:26:29.142Z,14.37
2022-10-21T23:28:57.176Z,14.36
2022-10-21T23:31:25.248Z,14.37
2022-10-21T23:33:53.187Z,14.36
2022-10-21T23:36:21.401Z,14.36
2022-10-21T23:38:54.428Z,14.36
2022-10-21T23:41:24.771Z,14.37
2022-10-21T23:43:52.625Z,14.36
2022-10-21T23:46:20.811Z,14.36
2022-10-21T23:48:48.980Z,14.37
2022-10-21T23:51:22.968Z,14.36
2022-10-21T23:53:50.941Z,14.36
2022-10-21T23:56:18.913Z,14.37
2022-10-21T23:58:48.558Z,14.38
